createdAt,value
2017-09-18T00:00:34.268Z,5.37
2017-09-18T00:01:33.174Z,5.33
2017-09-18T00:02:32.840Z,5.36
2017-09-18T00:03:32.812Z,5.37
2017-09-18T00:04:33.169Z,5.36
2017-09-18T00:05:33.130Z,5.37
2017-09-18T00:06:32.787Z,5.39
2017-09-18T00:07:33.098Z,5.34
2017-09-18T00:08:33.093Z,5.42
2017-09-18T00:09:33.078Z,5.36
2017-09-18T00:10:33.045Z,5.37
2017-09-18T00:11:33.055Z,5.41
2017-09-18T00:12:33.061Z,5.34
2017-09-18T00:13:33.005Z,5.33
2017-09-18T00:14:33.348Z,5.27
2017-09-18T00:15:32.981Z,5.23
2017-09-18T00:16:32.646Z,5.21
2017-09-18T00:17:32.957Z,5.18
2017-09-18T00:18:32.613Z,5.15
2017-09-18T00:19:33.275Z,5.06
2017-09-18T00:20:33.260Z,5.12
2017-09-18T00:21:32.574Z,5.12
2017-09-18T00:22:32.885Z,5.13
2017-09-18T00:23:32.542Z,5.03
2017-09-18T00:24:32.868Z,5.05
2017-09-18T00:25:32.535Z,5.03
2017-09-18T00:26:32.840Z,5.09
2017-09-18T00:27:32.824Z,5.06
2017-09-18T00:28:32.804Z,5.09
2017-09-18T00:29:32.790Z,5.03
2017-09-18T00:30:32.469Z,5.03
2017-09-18T00:31:32.501Z,5.06
2017-09-18T00:32:32.421Z,5.09
2017-09-18T00:33:32.409Z,5.09
2017-09-18T00:34:32.738Z,5.06
2017-09-18T00:35:32.384Z,5.08
2017-09-18T00:36:32.695Z,5.05
2017-09-18T00:37:32.358Z,5.05
2017-09-18T00:38:32.692Z,5.08
2017-09-18T00:39:32.334Z,5.06
2017-09-18T00:40:32.656Z,5.02
2017-09-18T00:41:32.633Z,5
2017-09-18T00:42:32.290Z,4.98
2017-09-18T00:43:32.603Z,4.95
2017-09-18T00:44:32.278Z,4.97
2017-09-18T00:45:32.606Z,4.95
2017-09-18T00:46:32.565Z,4.97
2017-09-18T00:47:32.221Z,4.88
2017-09-18T00:48:32.229Z,4.95
2017-09-18T00:49:32.226Z,4.91
2017-09-18T00:50:32.511Z,4.94
2017-09-18T00:51:32.166Z,4.92
2017-09-18T00:52:32.153Z,4.9
2017-09-18T00:53:32.488Z,4.91
2017-09-18T00:54:32.805Z,4.94
2017-09-18T00:55:32.443Z,4.92
2017-09-18T00:56:32.432Z,5.03
2017-09-18T00:57:32.087Z,5
2017-09-18T00:58:32.761Z,5.03
2017-09-18T00:59:32.729Z,5.08
2017-09-18T01:00:32.064Z,5.06
2017-09-18T01:01:32.366Z,5.09
2017-09-18T01:02:32.017Z,5.1
2017-09-18T01:03:32.335Z,5.12
2017-09-18T01:04:32.655Z,5.13
2017-09-18T01:05:31.978Z,5.15
2017-09-18T01:06:32.296Z,5.23
2017-09-18T01:07:32.283Z,5.13
2017-09-18T01:08:32.264Z,5.26
2017-09-18T01:09:31.924Z,5.27
2017-09-18T01:10:32.238Z,5.27
2017-09-18T01:11:32.227Z,5.33
2017-09-18T01:12:32.228Z,5.3
2017-09-18T01:13:32.204Z,5.27
2017-09-18T01:14:32.213Z,5.37
2017-09-18T01:15:32.172Z,5.36
2017-09-18T01:16:31.828Z,5.34
2017-09-18T01:17:31.818Z,5.34
2017-09-18T01:18:32.128Z,5.34
2017-09-18T01:19:32.116Z,5.36
2017-09-18T01:20:32.120Z,5.41
2017-09-18T01:21:32.089Z,5.36
2017-09-18T01:22:32.077Z,5.39
2017-09-18T01:23:31.735Z,5.37
2017-09-18T01:24:32.052Z,5.33
2017-09-18T01:25:32.048Z,5.34
2017-09-18T01:26:32.022Z,5.44
2017-09-18T01:27:31.678Z,5.37
2017-09-18T01:28:31.686Z,5.48
2017-09-18T01:29:32.321Z,5.42
2017-09-18T01:30:31.974Z,5.48
2017-09-18T01:31:31.628Z,5.42
2017-09-18T01:32:31.941Z,5.42
2017-09-18T01:33:31.930Z,5.41
2017-09-18T01:34:31.916Z,5.48
2017-09-18T01:35:31.606Z,5.46
2017-09-18T01:36:31.889Z,5.46
2017-09-18T01:37:31.546Z,5.44
2017-09-18T01:38:32.201Z,5.44
2017-09-18T01:39:31.519Z,5.46
2017-09-18T01:40:31.515Z,5.51
2017-09-18T01:41:31.823Z,5.57
2017-09-18T01:42:31.484Z,5.59
2017-09-18T01:43:32.145Z,5.59
2017-09-18T01:44:31.638Z,5.57
2017-09-18T01:45:32.002Z,5.48
2017-09-18T01:46:32.282Z,5.52
2017-09-18T01:47:31.583Z,5.52
2017-09-18T01:48:32.168Z,5.55
2017-09-18T01:49:32.202Z,5.59
2017-09-18T01:50:31.527Z,5.6
2017-09-18T01:51:31.935Z,5.55
2017-09-18T01:52:31.559Z,5.55
2017-09-18T01:53:31.825Z,5.62
2017-09-18T01:54:31.898Z,5.46
2017-09-18T01:55:31.604Z,5.55
2017-09-18T01:56:31.511Z,5.55
2017-09-18T01:57:31.508Z,5.57
2017-09-18T01:58:31.473Z,5.59
2017-09-18T01:59:31.835Z,5.67
2017-09-18T02:00:31.395Z,5.64
2017-09-18T02:01:31.425Z,5.62
2017-09-18T02:02:31.584Z,5.62
2017-09-18T02:03:31.552Z,5.66
2017-09-18T02:04:31.537Z,5.52
2017-09-18T02:05:31.173Z,5.49
2017-09-18T02:06:31.339Z,5.59
2017-09-18T02:07:31.509Z,5.59
2017-09-18T02:08:31.461Z,5.42
2017-09-18T02:09:31.117Z,5.48
2017-09-18T02:10:31.444Z,5.51
2017-09-18T02:11:31.493Z,5.45
2017-09-18T02:12:31.107Z,5.44
2017-09-18T02:13:31.749Z,5.39
2017-09-18T02:14:31.609Z,5.41
2017-09-18T02:15:31.052Z,5.42
2017-09-18T02:16:31.047Z,5.41
2017-09-18T02:17:31.012Z,5.39
2017-09-18T02:18:31.002Z,5.42
2017-09-18T02:19:30.986Z,5.46
2017-09-18T02:20:31.302Z,5.44
2017-09-18T02:21:31.310Z,5.37
2017-09-18T02:22:30.949Z,5.39
2017-09-18T02:23:31.287Z,5.39
2017-09-18T02:24:31.271Z,5.36
2017-09-18T02:25:30.905Z,5.39
2017-09-18T02:26:31.263Z,5.33
2017-09-18T02:27:31.558Z,5.3
2017-09-18T02:28:30.867Z,5.31
2017-09-18T02:29:30.863Z,5.23
2017-09-18T02:30:30.839Z,5.26
2017-09-18T02:31:31.482Z,5.26
2017-09-18T02:32:30.816Z,5.18
2017-09-18T02:33:31.131Z,5.33
2017-09-18T02:34:31.122Z,5.31
2017-09-18T02:35:31.109Z,5.21
2017-09-18T02:36:31.108Z,5.23
2017-09-18T02:37:30.742Z,5.2
2017-09-18T02:38:30.751Z,5.23
2017-09-18T02:39:30.737Z,5.2
2017-09-18T02:40:31.029Z,5.15
2017-09-18T02:41:30.697Z,5.18
2017-09-18T02:42:30.701Z,5.13
2017-09-18T02:43:31.013Z,5.12
2017-09-18T02:44:30.649Z,5.13
2017-09-18T02:45:30.984Z,5.09
2017-09-18T02:46:30.963Z,5.12
2017-09-18T02:47:30.957Z,5.18
2017-09-18T02:48:30.943Z,5.15
2017-09-18T02:49:30.960Z,5.15
2017-09-18T02:50:30.576Z,5.1
2017-09-18T02:51:30.920Z,5.09
2017-09-18T02:52:31.196Z,5.1
2017-09-18T02:53:30.862Z,5.12
2017-09-18T02:54:30.513Z,5
2017-09-18T02:55:30.824Z,5.1
2017-09-18T02:56:31.144Z,5.09
2017-09-18T02:57:30.802Z,5.03
2017-09-18T02:58:30.455Z,5.05
2017-09-18T02:59:30.769Z,5.02
2017-09-18T03:00:30.767Z,5.02
2017-09-18T03:01:30.417Z,5
2017-09-18T03:02:30.738Z,4.97
2017-09-18T03:03:30.741Z,4.94
2017-09-18T03:04:30.705Z,4.97
2017-09-18T03:05:30.360Z,4.92
2017-09-18T03:06:30.347Z,4.95
2017-09-18T03:07:30.333Z,4.92
2017-09-18T03:08:30.651Z,4.92
2017-09-18T03:09:30.305Z,4.97
2017-09-18T03:10:30.311Z,4.97
2017-09-18T03:11:30.280Z,4.9
2017-09-18T03:12:30.594Z,4.9
2017-09-18T03:13:30.273Z,4.97
2017-09-18T03:14:30.236Z,4.92
2017-09-18T03:15:30.266Z,4.92
2017-09-18T03:16:30.207Z,4.92
2017-09-18T03:17:30.525Z,4.92
2017-09-18T03:18:30.191Z,4.9
2017-09-18T03:19:30.831Z,4.94
2017-09-18T03:20:30.495Z,4.91
2017-09-18T03:21:30.469Z,4.94
2017-09-18T03:22:30.131Z,4.94
2017-09-18T03:23:30.441Z,5
2017-09-18T03:24:30.433Z,4.95
2017-09-18T03:25:30.174Z,4.92
2017-09-18T03:26:30.412Z,4.97
2017-09-18T03:27:30.398Z,4.95
2017-09-18T03:28:30.399Z,5.06
2017-09-18T03:29:30.035Z,4.94
2017-09-18T03:30:30.034Z,5
2017-09-18T03:31:30.027Z,5
2017-09-18T03:32:30.339Z,5.03
2017-09-18T03:33:30.326Z,4.92
2017-09-18T03:34:30.617Z,4.91
2017-09-18T03:35:30.274Z,5.06
2017-09-18T03:36:30.299Z,4.94
2017-09-18T03:37:30.272Z,4.95
2017-09-18T03:38:29.907Z,4.94
2017-09-18T03:39:29.919Z,4.95
2017-09-18T03:40:29.879Z,4.95
2017-09-18T03:41:30.228Z,4.94
2017-09-18T03:42:30.192Z,4.85
2017-09-18T03:43:30.166Z,4.91
2017-09-18T03:44:29.845Z,4.85
2017-09-18T03:45:29.810Z,4.84
2017-09-18T03:46:29.822Z,4.84
2017-09-18T03:47:30.111Z,4.87
2017-09-18T03:48:30.115Z,4.9
2017-09-18T03:49:30.102Z,4.78
2017-09-18T03:50:30.086Z,4.87
2017-09-18T03:51:29.726Z,4.74
2017-09-18T03:52:30.053Z,4.88
2017-09-18T03:53:30.353Z,4.88
2017-09-18T03:54:30.380Z,4.79
2017-09-18T03:55:29.673Z,4.74
2017-09-18T03:56:30.022Z,4.75
2017-09-18T03:57:29.991Z,4.71
2017-09-18T03:58:29.959Z,4.83
2017-09-18T03:59:29.617Z,4.87
2017-09-18T04:00:29.934Z,4.87
2017-09-18T04:01:29.591Z,4.78
2017-09-18T04:02:29.904Z,4.84
2017-09-18T04:03:29.907Z,4.79
2017-09-18T04:04:29.878Z,4.78
2017-09-18T04:05:29.928Z,4.72
2017-09-18T04:06:29.868Z,4.74
2017-09-18T04:07:29.835Z,4.75
2017-09-18T04:08:29.821Z,4.87
2017-09-18T04:09:30.133Z,4.83
2017-09-18T04:10:30.119Z,4.79
2017-09-18T04:11:29.780Z,4.87
2017-09-18T04:12:29.438Z,4.9
2017-09-18T04:13:29.753Z,4.79
2017-09-18T04:14:30.068Z,4.78
2017-09-18T04:15:29.416Z,4.9
2017-09-18T04:16:29.728Z,4.87
2017-09-18T04:17:29.370Z,4.76
2017-09-18T04:18:29.357Z,4.85
2017-09-18T04:19:29.672Z,4.78
2017-09-18T04:20:30.418Z,4.9
2017-09-18T04:21:29.314Z,4.91
2017-09-18T04:22:29.319Z,4.9
2017-09-18T04:23:29.328Z,4.83
2017-09-18T04:24:29.271Z,4.88
2017-09-18T04:25:29.584Z,4.85
2017-09-18T04:26:29.572Z,4.87
2017-09-18T04:27:29.558Z,4.84
2017-09-18T04:28:29.216Z,4.87
2017-09-18T04:29:29.531Z,4.83
2017-09-18T04:30:29.845Z,4.83
2017-09-18T04:31:29.175Z,4.92
2017-09-18T04:32:29.491Z,4.88
2017-09-18T04:33:29.148Z,4.9
2017-09-18T04:34:29.460Z,4.94
2017-09-18T04:35:29.132Z,4.94
2017-09-18T04:36:29.441Z,4.98
2017-09-18T04:37:29.102Z,5.06
2017-09-18T04:38:29.077Z,5.02
2017-09-18T04:39:29.064Z,5.03
2017-09-18T04:40:29.074Z,5.05
2017-09-18T04:41:29.036Z,5.03
2017-09-18T04:42:29.021Z,5.08
2017-09-18T04:43:29.009Z,5.09
2017-09-18T04:44:29.012Z,5.08
2017-09-18T04:45:29.316Z,5.06
2017-09-18T04:46:29.302Z,5.15
2017-09-18T04:47:29.635Z,5.18
2017-09-18T04:48:28.938Z,5.13
2017-09-18T04:49:29.271Z,5.2
2017-09-18T04:50:29.575Z,5.26
2017-09-18T04:51:29.229Z,5.24
2017-09-18T04:52:28.885Z,5.21
2017-09-18T04:53:28.870Z,5.39
2017-09-18T04:54:28.869Z,5.33
2017-09-18T04:55:29.173Z,5.44
2017-09-18T04:56:28.851Z,5.41
2017-09-18T04:57:29.146Z,5.42
2017-09-18T04:58:28.803Z,5.48
2017-09-18T04:59:29.117Z,5.52
2017-09-18T05:00:28.785Z,5.62
2017-09-18T05:01:28.764Z,5.62
2017-09-18T05:02:29.095Z,5.62
2017-09-18T05:03:29.085Z,5.7
2017-09-18T05:04:29.058Z,5.78
2017-09-18T05:05:28.710Z,5.75
2017-09-18T05:06:29.034Z,5.78
2017-09-18T05:07:28.681Z,5.75
2017-09-18T05:08:29.344Z,5.87
2017-09-18T05:09:29.018Z,5.87
2017-09-18T05:10:29.332Z,5.89
2017-09-18T05:11:28.628Z,5.96
2017-09-18T05:12:28.965Z,6.03
2017-09-18T05:13:28.807Z,6.17
2017-09-18T05:14:28.937Z,6.13
2017-09-18T05:15:28.576Z,6.2
2017-09-18T05:16:28.894Z,6.36
2017-09-18T05:17:28.935Z,6.4
2017-09-18T05:18:29.193Z,6.43
2017-09-18T05:19:28.541Z,6.6
2017-09-18T05:20:28.855Z,6.61
2017-09-18T05:21:28.825Z,6.65
2017-09-18T05:22:28.814Z,6.73
2017-09-18T05:23:29.138Z,6.82
2017-09-18T05:24:28.799Z,6.94
2017-09-18T05:25:28.778Z,6.9
2017-09-18T05:26:28.761Z,7.03
2017-09-18T05:27:29.075Z,7
2017-09-18T05:28:28.428Z,7.16
2017-09-18T05:29:28.396Z,7.26
2017-09-18T05:30:28.710Z,7.27
2017-09-18T05:31:28.698Z,7.31
2017-09-18T05:32:28.357Z,7.29
2017-09-18T05:33:28.696Z,7.39
2017-09-18T05:34:29.009Z,7.33
2017-09-18T05:35:28.660Z,7.45
2017-09-18T05:36:28.331Z,7.49
2017-09-18T05:37:28.973Z,7.52
2017-09-18T05:38:28.284Z,7.52
2017-09-18T05:39:28.598Z,7.58
2017-09-18T05:40:28.585Z,7.55
2017-09-18T05:41:28.905Z,7.7
2017-09-18T05:42:28.238Z,7.56
2017-09-18T05:43:28.555Z,7.74
2017-09-18T05:44:28.211Z,7.77
2017-09-18T05:45:28.542Z,7.75
2017-09-18T05:46:28.513Z,7.8
2017-09-18T05:47:28.522Z,7.8
2017-09-18T05:48:28.856Z,7.89
2017-09-18T05:49:28.149Z,7.85
2017-09-18T05:50:28.467Z,7.95
2017-09-18T05:51:28.161Z,7.89
2017-09-18T05:52:28.114Z,7.98
2017-09-18T05:53:28.444Z,7.99
2017-09-18T05:54:28.092Z,7.96
2017-09-18T05:55:28.407Z,8.07
2017-09-18T05:56:28.403Z,7.99
2017-09-18T05:57:28.382Z,8.07
2017-09-18T05:58:28.045Z,8.07
2017-09-18T05:59:28.365Z,8.1
2017-09-18T06:00:28.354Z,8.11
2017-09-18T06:01:28.334Z,8.09
2017-09-18T06:02:28.010Z,8.06
2017-09-18T06:03:28.313Z,8.1
2017-09-18T06:04:27.974Z,8.14
2017-09-18T06:05:28.013Z,8.11
2017-09-18T06:06:27.951Z,8.13
2017-09-18T06:07:27.949Z,8.14
2017-09-18T06:08:28.273Z,8.14
2017-09-18T06:09:27.918Z,8.13
2017-09-18T06:10:27.910Z,8.26
2017-09-18T06:11:27.904Z,8.19
2017-09-18T06:12:28.211Z,8.26
2017-09-18T06:13:27.883Z,8.31
2017-09-18T06:14:27.879Z,8.19
2017-09-18T06:15:28.179Z,8.19
2017-09-18T06:16:27.836Z,8.21
2017-09-18T06:17:28.165Z,8.25
2017-09-18T06:18:28.151Z,8.19
2017-09-18T06:19:28.149Z,8.19
2017-09-18T06:20:28.498Z,8.29
2017-09-18T06:21:27.785Z,8.28
2017-09-18T06:22:27.790Z,8.28
2017-09-18T06:23:28.084Z,8.34
2017-09-18T06:24:27.749Z,8.35
2017-09-18T06:25:27.736Z,8.39
2017-09-18T06:26:27.724Z,8.34
2017-09-18T06:27:28.061Z,8.29
2017-09-18T06:28:27.723Z,8.34
2017-09-18T06:29:27.700Z,8.28
2017-09-18T06:30:28.025Z,8.34
2017-09-18T06:31:27.684Z,8.31
2017-09-18T06:32:27.657Z,8.36
2017-09-18T06:33:27.975Z,8.35
2017-09-18T06:34:27.962Z,8.36
2017-09-18T06:35:27.972Z,8.39
2017-09-18T06:36:27.949Z,8.32
2017-09-18T06:37:27.616Z,8.29
2017-09-18T06:38:27.588Z,8.32
2017-09-18T06:39:28.236Z,8.22
2017-09-18T06:40:27.909Z,8.34
2017-09-18T06:41:27.565Z,8.34
2017-09-18T06:42:27.546Z,8.32
2017-09-18T06:43:27.870Z,8.36
2017-09-18T06:44:27.522Z,8.39
2017-09-18T06:45:27.859Z,8.35
2017-09-18T06:46:27.501Z,8.36
2017-09-18T06:47:27.838Z,8.36
2017-09-18T06:48:28.151Z,8.5
2017-09-18T06:49:28.133Z,8.6
2017-09-18T06:50:27.455Z,8.67
2017-09-18T06:51:27.796Z,8.65
2017-09-18T06:52:27.762Z,8.76
2017-09-18T06:53:28.080Z,8.86
2017-09-18T06:54:27.755Z,8.83
2017-09-18T06:55:27.739Z,8.94
2017-09-18T06:56:27.722Z,8.95
2017-09-18T06:57:27.378Z,9.11
2017-09-18T06:58:27.697Z,9.23
2017-09-18T06:59:27.703Z,9.29
2017-09-18T07:00:27.675Z,9.29
2017-09-18T07:01:27.342Z,9.45
2017-09-18T07:02:27.658Z,9.45
2017-09-18T07:03:27.646Z,9.63
2017-09-18T07:04:27.307Z,9.63
2017-09-18T07:05:27.636Z,9.71
2017-09-18T07:06:27.635Z,9.72
2017-09-18T07:07:27.602Z,9.82
2017-09-18T07:08:27.596Z,9.92
2017-09-18T07:09:27.254Z,10.07
2017-09-18T07:10:27.592Z,10.05
2017-09-18T07:11:27.243Z,10.15
2017-09-18T07:12:27.223Z,10.21
2017-09-18T07:13:27.213Z,10.21
2017-09-18T07:14:27.204Z,10.17
2017-09-18T07:15:27.194Z,10.23
2017-09-18T07:16:27.512Z,10.23
2017-09-18T07:17:27.176Z,10.15
2017-09-18T07:18:27.167Z,10.23
2017-09-18T07:19:27.481Z,10.17
2017-09-18T07:20:27.161Z,10.29
2017-09-18T07:21:27.134Z,10.29
2017-09-18T07:22:27.451Z,10.32
2017-09-18T07:23:27.448Z,10.38
2017-09-18T07:24:27.116Z,10.36
2017-09-18T07:25:27.428Z,10.41
2017-09-18T07:26:27.429Z,10.47
2017-09-18T07:27:27.440Z,10.46
2017-09-18T07:28:27.067Z,10.49
2017-09-18T07:29:27.397Z,10.47
2017-09-18T07:30:27.398Z,10.49
2017-09-18T07:31:27.375Z,10.41
2017-09-18T07:32:27.354Z,10.39
2017-09-18T07:33:27.031Z,10.38
2017-09-18T07:34:27.011Z,10.42
2017-09-18T07:35:27.353Z,10.31
2017-09-18T07:36:27.010Z,10.41
2017-09-18T07:37:26.983Z,10.54
2017-09-18T07:38:27.304Z,10.51
2017-09-18T07:39:27.293Z,10.57
2017-09-18T07:40:26.965Z,10.61
2017-09-18T07:41:27.599Z,10.54
2017-09-18T07:42:26.945Z,10.57
2017-09-18T07:43:27.293Z,10.58
2017-09-18T07:44:26.921Z,10.58
2017-09-18T07:45:27.235Z,10.59
2017-09-18T07:46:27.227Z,10.63
2017-09-18T07:47:27.545Z,10.7
2017-09-18T07:48:26.882Z,10.67
2017-09-18T07:49:26.873Z,10.75
2017-09-18T07:50:26.862Z,10.88
2017-09-18T07:51:26.853Z,10.88
2017-09-18T07:52:27.173Z,10.97
2017-09-18T07:53:26.837Z,11.03
2017-09-18T07:54:26.825Z,10.98
2017-09-18T07:55:27.148Z,11.16
2017-09-18T07:56:27.150Z,11.26
2017-09-18T07:57:26.804Z,11.27
2017-09-18T07:58:26.793Z,11.31
2017-09-18T07:59:26.780Z,11.33
2017-09-18T08:00:27.105Z,11.3
2017-09-18T08:01:27.115Z,11.28
2017-09-18T08:02:26.756Z,11.45
2017-09-18T08:03:27.429Z,11.35
2017-09-18T08:04:27.067Z,11.34
2017-09-18T08:05:26.740Z,11.38
2017-09-18T08:06:26.723Z,11.41
2017-09-18T08:07:26.715Z,11.48
2017-09-18T08:08:27.031Z,11.49
2017-09-18T08:09:26.695Z,11.46
2017-09-18T08:10:26.685Z,11.48
2017-09-18T08:11:27.332Z,11.61
2017-09-18T08:12:26.670Z,11.66
2017-09-18T08:13:26.864Z,11.75
2017-09-18T08:14:26.977Z,11.91
2017-09-18T08:15:26.664Z,11.95
2017-09-18T08:16:26.977Z,11.97
2017-09-18T08:17:26.625Z,12.03
2017-09-18T08:18:26.955Z,12.13
2017-09-18T08:19:26.943Z,12.11
2017-09-18T08:20:26.604Z,12.03
2017-09-18T08:21:26.922Z,12.03
2017-09-18T08:22:26.913Z,11.86
2017-09-18T08:23:26.902Z,11.81
2017-09-18T08:24:26.894Z,11.88
2017-09-18T08:25:26.562Z,11.81
2017-09-18T08:26:26.569Z,11.79
2017-09-18T08:27:26.543Z,11.79
2017-09-18T08:28:26.538Z,11.85
2017-09-18T08:29:26.853Z,11.81
2017-09-18T08:30:26.886Z,11.68
2017-09-18T08:31:26.522Z,11.56
2017-09-18T08:32:26.834Z,11.56
2017-09-18T08:33:26.497Z,11.56
2017-09-18T08:34:26.498Z,11.53
2017-09-18T08:35:27.133Z,11.52
2017-09-18T08:36:26.472Z,11.52
2017-09-18T08:37:26.790Z,11.63
2017-09-18T08:38:26.781Z,11.51
2017-09-18T08:39:26.787Z,11.41
2017-09-18T08:40:26.766Z,11.34
2017-09-18T08:41:26.756Z,11.31
2017-09-18T08:42:27.074Z,11.16
2017-09-18T08:43:26.752Z,11.08
2017-09-18T08:44:26.736Z,11.09
2017-09-18T08:45:26.720Z,11.13
2017-09-18T08:46:26.710Z,11.26
2017-09-18T08:47:26.704Z,11.35
2017-09-18T08:48:26.386Z,11.43
2017-09-18T08:49:26.369Z,11.43
2017-09-18T08:50:26.679Z,11.6
2017-09-18T08:51:26.340Z,11.63
2017-09-18T08:52:26.334Z,11.57
2017-09-18T08:53:26.324Z,11.73
2017-09-18T08:54:26.330Z,11.78
2017-09-18T08:55:26.640Z,11.89
2017-09-18T08:56:26.297Z,11.94
2017-09-18T08:57:26.305Z,12.1
2017-09-18T08:58:26.286Z,12.13
2017-09-18T08:59:26.603Z,12.23
2017-09-18T09:00:26.937Z,12.33
2017-09-18T09:01:26.256Z,12.38
2017-09-18T09:02:26.252Z,12.47
2017-09-18T09:03:26.251Z,12.63
2017-09-18T09:04:26.256Z,12.7
2017-09-18T09:05:26.556Z,12.89
2017-09-18T09:06:26.217Z,13.07
2017-09-18T09:07:26.228Z,13.27
2017-09-18T09:08:26.527Z,13.19
2017-09-18T09:09:26.217Z,13.27
2017-09-18T09:10:26.186Z,13.35
2017-09-18T09:11:26.522Z,13.44
2017-09-18T09:12:26.506Z,13.42
2017-09-18T09:13:26.165Z,13.25
2017-09-18T09:14:26.157Z,13.19
2017-09-18T09:15:26.149Z,13.02
2017-09-18T09:16:26.467Z,12.76
2017-09-18T09:17:26.461Z,12.7
2017-09-18T09:18:26.123Z,12.59
2017-09-18T09:19:26.456Z,12.66
2017-09-18T09:20:26.146Z,12.71
2017-09-18T09:21:26.451Z,12.7
2017-09-18T09:22:26.425Z,12.78
2017-09-18T09:23:26.095Z,12.88
2017-09-18T09:24:26.412Z,12.89
2017-09-18T09:25:26.408Z,12.92
2017-09-18T09:26:26.078Z,13.21
2017-09-18T09:27:26.394Z,13.21
2017-09-18T09:28:26.056Z,13.28
2017-09-18T09:29:26.385Z,13.28
2017-09-18T09:30:26.041Z,13.2
2017-09-18T09:31:26.375Z,13.2
2017-09-18T09:32:26.026Z,12.92
2017-09-18T09:33:26.681Z,12.78
2017-09-18T09:34:26.013Z,12.62
2017-09-18T09:35:26.003Z,12.56
2017-09-18T09:36:26.019Z,12.44
2017-09-18T09:37:26.322Z,12.4
2017-09-18T09:38:26.312Z,12.41
2017-09-18T09:39:26.306Z,12.45
2017-09-18T09:40:25.971Z,12.45
2017-09-18T09:41:25.986Z,12.4
2017-09-18T09:42:26.293Z,12.37
2017-09-18T09:43:26.325Z,12.43
2017-09-18T09:44:26.627Z,12.51
2017-09-18T09:45:26.286Z,12.51
2017-09-18T09:46:25.931Z,12.59
2017-09-18T09:47:25.936Z,12.65
2017-09-18T09:48:26.565Z,12.78
2017-09-18T09:49:26.231Z,12.83
2017-09-18T09:50:26.226Z,12.89
2017-09-18T09:51:26.217Z,12.92
2017-09-18T09:52:25.886Z,12.95
2017-09-18T09:53:26.223Z,13.11
2017-09-18T09:54:25.871Z,13.2
2017-09-18T09:55:25.860Z,13.27
2017-09-18T09:56:25.854Z,13.31
2017-09-18T09:57:25.847Z,13.27
2017-09-18T09:58:26.524Z,13.32
2017-09-18T09:59:25.831Z,13.31
2017-09-18T10:00:25.828Z,13.47
2017-09-18T10:01:26.150Z,13.5
2017-09-18T10:02:26.473Z,13.55
2017-09-18T10:03:26.138Z,13.6
2017-09-18T10:04:25.800Z,13.66
2017-09-18T10:05:26.450Z,13.63
2017-09-18T10:06:25.800Z,13.58
2017-09-18T10:07:25.780Z,13.86
2017-09-18T10:08:25.776Z,13.94
2017-09-18T10:09:26.096Z,14.11
2017-09-18T10:10:26.436Z,14.26
2017-09-18T10:11:25.772Z,14.33
2017-09-18T10:12:26.080Z,14.45
2017-09-18T10:13:26.070Z,14.49
2017-09-18T10:14:26.073Z,14.49
2017-09-18T10:15:25.731Z,14.44
2017-09-18T10:16:26.379Z,14.34
2017-09-18T10:17:26.076Z,14.28
2017-09-18T10:18:26.371Z,14.15
2017-09-18T10:19:26.042Z,14.02
2017-09-18T10:20:26.035Z,14.09
2017-09-18T10:21:25.694Z,14.02
2017-09-18T10:22:25.686Z,14.06
2017-09-18T10:23:26.009Z,13.99
2017-09-18T10:24:26.012Z,13.94
2017-09-18T10:25:25.993Z,13.91
2017-09-18T10:26:25.993Z,13.86
2017-09-18T10:27:25.996Z,13.81
2017-09-18T10:28:25.980Z,13.84
2017-09-18T10:29:25.652Z,13.91
2017-09-18T10:30:25.648Z,13.95
2017-09-18T10:31:25.958Z,14.16
2017-09-18T10:32:25.623Z,14.06
2017-09-18T10:33:26.284Z,14.06
2017-09-18T10:34:25.610Z,14.02
2017-09-18T10:35:25.934Z,14.15
2017-09-18T10:36:25.598Z,14.31
2017-09-18T10:37:25.592Z,14.51
2017-09-18T10:38:26.264Z,14.63
2017-09-18T10:39:25.914Z,14.86
2017-09-18T10:40:25.905Z,14.95
2017-09-18T10:41:25.568Z,15.13
2017-09-18T10:42:25.577Z,15.33
2017-09-18T10:43:25.555Z,15.45
2017-09-18T10:44:25.553Z,15.58
2017-09-18T10:45:25.878Z,15.37
2017-09-18T10:46:25.541Z,15.26
2017-09-18T10:47:25.562Z,15.07
2017-09-18T10:48:25.892Z,15.01
2017-09-18T10:49:25.522Z,14.89
2017-09-18T10:50:25.842Z,14.85
2017-09-18T10:51:25.847Z,14.8
2017-09-18T10:52:25.831Z,14.7
2017-09-18T10:53:25.827Z,14.69
2017-09-18T10:54:25.839Z,14.67
2017-09-18T10:55:25.488Z,14.63
2017-09-18T10:56:25.827Z,14.63
2017-09-18T10:57:25.805Z,14.66
2017-09-18T10:58:25.817Z,14.66
2017-09-18T10:59:25.500Z,14.59
2017-09-18T11:00:26.133Z,14.49
2017-09-18T11:01:25.782Z,14.39
2017-09-18T11:02:25.449Z,14.46
2017-09-18T11:03:25.774Z,14.49
2017-09-18T11:04:26.112Z,14.49
2017-09-18T11:05:25.452Z,14.52
2017-09-18T11:06:25.766Z,14.67
2017-09-18T11:07:25.421Z,14.7
2017-09-18T11:08:25.749Z,14.67
2017-09-18T11:09:26.089Z,14.86
2017-09-18T11:10:25.737Z,15.02
2017-09-18T11:11:25.401Z,15.1
2017-09-18T11:12:25.731Z,15.13
2017-09-18T11:13:25.723Z,15.2
2017-09-18T11:14:25.745Z,15.01
2017-09-18T11:15:25.378Z,14.98
2017-09-18T11:16:25.373Z,14.85
2017-09-18T11:17:25.710Z,14.8
2017-09-18T11:18:25.366Z,14.75
2017-09-18T11:19:25.358Z,14.69
2017-09-18T11:20:25.353Z,14.66
2017-09-18T11:21:25.709Z,14.71
2017-09-18T11:22:26.012Z,14.75
2017-09-18T11:23:25.344Z,14.8
2017-09-18T11:24:25.331Z,14.75
2017-09-18T11:25:25.980Z,14.83
2017-09-18T11:26:25.669Z,14.95
2017-09-18T11:27:25.337Z,15.2
2017-09-18T11:28:25.647Z,15.41
2017-09-18T11:29:25.652Z,15.49
2017-09-18T11:30:25.627Z,15.53
2017-09-18T11:31:25.293Z,15.44
2017-09-18T11:32:25.299Z,15.37
2017-09-18T11:33:25.316Z,15.37
2017-09-18T11:34:25.616Z,15.53
2017-09-18T11:35:25.601Z,15.77
2017-09-18T11:36:25.275Z,16.04
2017-09-18T11:37:25.600Z,16.11
2017-09-18T11:38:25.589Z,16.17
2017-09-18T11:39:25.609Z,16.08
2017-09-18T11:40:25.580Z,16.02
2017-09-18T11:41:25.575Z,15.91
2017-09-18T11:42:25.254Z,15.92
2017-09-18T11:43:25.572Z,15.7
2017-09-18T11:44:25.913Z,15.75
2017-09-18T11:45:25.228Z,15.74
2017-09-18T11:46:25.225Z,15.59
2017-09-18T11:47:33.403Z,15.55
2017-09-18T11:48:25.545Z,15.51
2017-09-18T11:49:25.547Z,15.49
2017-09-18T11:50:25.536Z,15.56
2017-09-18T11:51:25.211Z,15.56
2017-09-18T11:52:25.196Z,15.59
2017-09-18T11:53:25.187Z,15.73
2017-09-18T11:54:25.513Z,15.84
2017-09-18T11:55:25.181Z,15.93
2017-09-18T11:56:25.513Z,15.96
2017-09-18T11:57:25.185Z,16.14
2017-09-18T11:58:25.166Z,16.3
2017-09-18T11:59:25.488Z,16.4
2017-09-18T12:00:25.156Z,16.4
2017-09-18T12:01:25.497Z,16.34
2017-09-18T12:02:25.803Z,16.48
2017-09-18T12:03:25.146Z,16.48
2017-09-18T12:04:25.144Z,16.51
2017-09-18T12:05:25.137Z,16.52
2017-09-18T12:06:25.135Z,16.65
2017-09-18T12:07:25.493Z,16.55
2017-09-18T12:08:25.801Z,16.44
2017-09-18T12:09:25.119Z,16.34
2017-09-18T12:10:25.481Z,16.32
2017-09-18T12:11:25.122Z,16.45
2017-09-18T12:12:25.112Z,16.33
2017-09-18T12:13:25.432Z,16.32
2017-09-18T12:14:25.426Z,16.16
2017-09-18T12:15:25.777Z,16.27
2017-09-18T12:16:25.460Z,16.27
2017-09-18T12:17:25.127Z,16.32
2017-09-18T12:18:25.412Z,16.29
2017-09-18T12:19:25.734Z,16.16
2017-09-18T12:20:25.400Z,16.13
2017-09-18T12:21:25.410Z,16.11
2017-09-18T12:22:25.068Z,16.06
2017-09-18T12:23:25.740Z,16.04
2017-09-18T12:24:25.756Z,15.98
2017-09-18T12:25:25.054Z,15.89
2017-09-18T12:26:25.050Z,15.73
2017-09-18T12:27:25.045Z,15.73
2017-09-18T12:28:25.041Z,15.74
2017-09-18T12:29:25.377Z,15.78
2017-09-18T12:30:25.382Z,15.74
2017-09-18T12:31:25.362Z,15.63
2017-09-18T12:32:25.350Z,15.51
2017-09-18T12:33:25.019Z,15.4
2017-09-18T12:34:25.668Z,15.33
2017-09-18T12:35:25.339Z,15.25
2017-09-18T12:36:25.010Z,15.1
2017-09-18T12:37:25.358Z,14.95
2017-09-18T12:38:25.001Z,14.82
2017-09-18T12:39:25.319Z,14.85
2017-09-18T12:40:25.320Z,14.82
2017-09-18T12:41:25.643Z,14.83
2017-09-18T12:42:25.634Z,14.75
2017-09-18T12:43:25.304Z,14.74
2017-09-18T12:44:25.620Z,14.61
2017-09-18T12:45:24.962Z,14.74
2017-09-18T12:46:25.290Z,14.85
2017-09-18T12:47:24.981Z,14.87
2017-09-18T12:48:24.954Z,15.12
2017-09-18T12:49:24.941Z,15.26
2017-09-18T12:50:25.270Z,15.43
2017-09-18T12:51:25.260Z,15.56
2017-09-18T12:52:24.929Z,15.62
2017-09-18T12:53:25.291Z,15.77
2017-09-18T12:54:24.915Z,15.73
2017-09-18T12:55:25.241Z,15.68
2017-09-18T12:56:24.906Z,15.68
2017-09-18T12:57:25.228Z,15.6
2017-09-18T12:58:25.235Z,15.59
2017-09-18T12:59:25.225Z,15.63
2017-09-18T13:00:25.230Z,15.55
2017-09-18T13:01:25.217Z,15.55
2017-09-18T13:02:24.877Z,15.73
2017-09-18T13:03:25.206Z,15.78
2017-09-18T13:04:25.208Z,15.88
2017-09-18T13:05:24.864Z,15.95
2017-09-18T13:06:25.515Z,16.07
2017-09-18T13:07:25.184Z,16.08
2017-09-18T13:08:24.865Z,15.99
2017-09-18T13:09:25.186Z,15.84